createdAt,value
2022-07-28T00:00:15.279Z,29.47
2022-07-28T00:02:45.514Z,29.51
2022-07-28T00:05:15.745Z,29.45
2022-07-28T00:07:46.289Z,29.39
2022-07-28T00:10:16.771Z,29.45
2022-07-28T00:12:47.132Z,29.43
2022-07-28T00:15:17.285Z,29.54
2022-07-28T00:17:47.520Z,29.70
2022-07-28T00:20:17.546Z,29.66
2022-07-28T00:22:48.223Z,29.54
2022-07-28T00:25:18.642Z,29.53
2022-07-28T00:27:48.896Z,29.63
2022-07-28T00:30:19.364Z,29.58
2022-07-28T00:32:49.766Z,29.61
2022-07-28T00:35:30.253Z,29.65
2022-07-28T00:38:01.415Z,29.64
2022-07-28T00:40:50.177Z,29.68
2022-07-28T00:43:20.439Z,29.76
2022-07-28T00:45:50.618Z,29.81
2022-07-28T00:48:20.784Z,29.94
2022-07-28T00:50:51.127Z,30.04
2022-07-28T00:53:21.286Z,30.20
2022-07-28T00:56:06.352Z,30.16
2022-07-28T00:58:39.322Z,30.19
2022-07-28T01:01:11.254Z,30.22
2022-07-28T01:03:48.625Z,30.23
2022-07-28T01:06:50.384Z,30.21
2022-07-28T01:09:44.437Z,30.20
2022-07-28T01:12:29.287Z,30.32
2022-07-28T01:15:04.625Z,30.27
2022-07-28T01:17:52.709Z,30.24
2022-07-28T01:21:11.473Z,30.35
2022-07-28T01:24:10.159Z,30.43
2022-07-28T01:27:01.474Z,30.38
2022-07-28T01:29:49.921Z,30.36
2022-07-28T01:32:25.032Z,30.40
2022-07-28T01:35:04.184Z,30.46
2022-07-28T01:37:41.507Z,30.62
2022-07-28T01:40:14.645Z,30.62
2022-07-28T01:42:55.756Z,30.76
2022-07-28T01:45:27.507Z,30.82
2022-07-28T01:48:02.204Z,30.82
2022-07-28T01:50:33.522Z,30.86
2022-07-28T01:53:04.143Z,30.94
2022-07-28T01:55:36.318Z,30.95
2022-07-28T01:58:07.745Z,31.01
2022-07-28T02:00:38.774Z,31.03
2022-07-28T02:03:09.952Z,30.98
2022-07-28T02:05:42.903Z,31.04
2022-07-28T02:08:16.036Z,31.06
2022-07-28T02:11:09.190Z,31.10
2022-07-28T02:13:41.811Z,31.11
2022-07-28T02:16:15.693Z,31.13
2022-07-28T02:18:47.739Z,31.18
2022-07-28T02:21:19.336Z,31.18
2022-07-28T02:23:51.534Z,31.15
2022-07-28T02:26:29.770Z,31.14
2022-07-28T02:29:02.836Z,31.18
2022-07-28T02:31:59.627Z,31.17
2022-07-28T02:34:32.229Z,31.19
2022-07-28T02:37:06.041Z,31.18
2022-07-28T02:39:44.512Z,31.20
2022-07-28T02:42:34.503Z,31.24
2022-07-28T02:45:10.751Z,31.28
2022-07-28T02:47:48.306Z,31.22
2022-07-28T02:50:22.981Z,31.29
2022-07-28T02:52:55.736Z,31.33
2022-07-28T02:55:26.723Z,31.42
2022-07-28T02:57:58.378Z,31.47
2022-07-28T03:00:29.152Z,31.37
2022-07-28T06:20:26.130Z,30.26
2022-07-28T06:22:57.758Z,30.32
2022-07-28T06:25:30.019Z,30.42
2022-07-28T06:28:02.082Z,30.46
2022-07-28T06:30:34.149Z,30.48
2022-07-28T06:33:04.957Z,30.63
2022-07-28T06:35:43.269Z,30.72
2022-07-28T06:38:23.360Z,30.79
2022-07-28T06:40:54.057Z,30.81
2022-07-28T06:43:24.732Z,30.85
2022-07-28T06:45:55.726Z,30.84
2022-07-28T06:48:29.238Z,30.93
2022-07-28T06:51:02.216Z,30.92
2022-07-28T06:53:33.672Z,30.94
2022-07-28T06:56:06.771Z,31.01
2022-07-28T06:58:38.315Z,31.03
2022-07-28T07:01:10.254Z,30.98
2022-07-28T07:03:40.944Z,31.09
2022-07-28T07:06:13.456Z,31.17
2022-07-28T07:08:44.372Z,31.10
2022-07-28T07:11:15.197Z,31.12
2022-07-28T07:13:45.890Z,31.15
2022-07-28T07:16:16.804Z,31.17
2022-07-28T07:18:47.667Z,31.24
2022-07-28T07:21:19.045Z,31.19
2022-07-28T07:23:49.992Z,31.20
2022-07-28T07:26:20.851Z,31.34
2022-07-28T07:28:51.533Z,31.34
2022-07-28T07:31:22.125Z,31.32
2022-07-28T07:33:53.190Z,31.44
2022-07-28T07:36:24.265Z,31.38
2022-07-28T07:38:54.959Z,31.35
2022-07-28T07:41:25.659Z,31.33
2022-07-28T07:43:56.599Z,31.34
2022-07-28T07:46:27.539Z,31.35
2022-07-28T07:48:58.270Z,31.36
2022-07-28T07:51:28.997Z,31.54
2022-07-28T07:53:59.609Z,31.44
2022-07-28T07:56:30.257Z,31.47
2022-07-28T07:59:01.394Z,31.48
2022-07-28T08:01:32.044Z,31.53
2022-07-28T08:04:03.657Z,31.51
2022-07-28T08:06:34.425Z,31.46
2022-07-28T08:09:06.697Z,31.48
2022-07-28T08:11:37.379Z,31.47
2022-07-28T08:14:08.051Z,31.43
2022-07-28T08:16:39.330Z,31.43
2022-07-28T08:19:10.093Z,31.49
2022-07-28T08:21:42.951Z,31.47
2022-07-28T08:24:14.195Z,31.48
2022-07-28T08:27:02.459Z,31.48
2022-07-28T08:29:33.651Z,31.51
2022-07-28T08:32:06.797Z,31.43
2022-07-28T08:34:38.558Z,31.40
2022-07-28T08:37:09.457Z,31.50
2022-07-28T08:39:40.239Z,31.49
2022-07-28T08:42:18.479Z,31.53
2022-07-28T08:44:57.775Z,31.49
2022-07-28T08:47:40.499Z,31.49
2022-07-28T08:50:17.082Z,31.47
2022-07-28T08:52:48.972Z,31.48
2022-07-28T08:55:31.872Z,31.44
2022-07-28T08:58:03.529Z,31.54
2022-07-28T09:00:33.857Z,31.56
2022-07-28T09:03:06.514Z,31.50
2022-07-28T09:05:39.036Z,31.60
2022-07-28T09:08:10.180Z,31.54
2022-07-28T09:10:41.210Z,31.62
2022-07-28T09:13:13.342Z,31.54
2022-07-28T09:15:45.009Z,31.58
2022-07-28T09:18:17.050Z,31.56
2022-07-28T09:20:48.565Z,31.51
2022-07-28T09:23:42.132Z,31.62
2022-07-28T09:26:14.819Z,31.55
2022-07-28T09:28:59.621Z,31.55
2022-07-28T09:31:31.891Z,31.49
2022-07-28T09:34:11.395Z,31.54
2022-07-28T09:36:44.594Z,31.62
2022-07-28T09:39:31.122Z,31.58
2022-07-28T13:48:29.917Z,30.65
2022-07-28T13:51:00.666Z,30.72
2022-07-28T13:53:36.963Z,30.71
2022-07-28T13:56:11.918Z,30.66
2022-07-28T13:58:42.606Z,30.64
2022-07-28T14:01:13.528Z,30.76
2022-07-28T14:03:55.837Z,30.86
2022-07-28T14:06:28.619Z,31.04
2022-07-28T14:09:00.161Z,31.03
2022-07-28T14:11:36.478Z,31.08
2022-07-28T14:14:07.925Z,31.11
2022-07-28T14:16:44.596Z,31.15
2022-07-28T14:19:16.657Z,31.16
2022-07-28T14:21:54.306Z,31.17
2022-07-28T14:24:25.228Z,31.17
2022-07-28T14:26:56.359Z,31.22
2022-07-28T14:29:28.620Z,31.20
2022-07-28T14:32:01.844Z,31.25
2022-07-28T14:34:32.689Z,31.23
2022-07-28T14:37:09.246Z,31.23
2022-07-28T14:39:41.210Z,31.23
2022-07-28T14:42:13.085Z,31.26
2022-07-28T14:44:44.009Z,31.27
2022-07-28T14:47:15.025Z,31.27
2022-07-28T14:49:58.219Z,31.30
2022-07-28T14:52:30.587Z,31.27
2022-07-28T14:55:01.279Z,31.31
2022-07-28T14:57:48.159Z,31.27
2022-07-28T15:00:23.204Z,31.25
2022-07-28T15:02:55.568Z,31.25
2022-07-28T15:05:26.570Z,31.24
2022-07-28T15:07:57.313Z,31.31
2022-07-28T15:10:28.024Z,31.28
2022-07-28T15:12:59.376Z,31.27
2022-07-28T15:15:30.109Z,31.26
2022-07-28T15:18:01.194Z,31.31
2022-07-28T15:20:32.000Z,31.28
2022-07-28T15:23:02.904Z,31.26
2022-07-28T15:25:33.724Z,31.28
2022-07-28T15:28:04.516Z,31.28
2022-07-28T15:30:35.244Z,31.32
2022-07-28T15:33:12.100Z,31.36
2022-07-28T15:35:58.190Z,31.40
2022-07-28T15:38:32.095Z,31.39
2022-07-28T15:41:02.903Z,31.40
2022-07-28T15:43:38.781Z,31.37
2022-07-28T15:46:13.081Z,31.39
2022-07-28T15:48:45.870Z,31.39
2022-07-28T15:51:16.594Z,31.38
2022-07-28T15:53:49.509Z,31.31
2022-07-28T15:56:20.272Z,31.24
2022-07-28T15:58:51.720Z,31.22
2022-07-28T16:01:22.421Z,31.20
2022-07-28T16:03:53.474Z,31.22
2022-07-28T16:06:25.226Z,31.23
2022-07-28T16:08:56.014Z,31.20
2022-07-28T16:11:26.640Z,31.17
2022-07-28T16:13:57.484Z,31.16
2022-07-28T16:16:28.217Z,31.16
2022-07-28T16:18:59.332Z,31.14
2022-07-28T16:21:29.852Z,31.12
2022-07-28T16:24:00.655Z,31.11
2022-07-28T16:26:31.359Z,31.09
2022-07-28T16:29:02.181Z,31.10
2022-07-28T16:31:34.652Z,31.10
2022-07-28T16:34:05.500Z,31.10
2022-07-28T16:36:36.250Z,31.10
2022-07-28T16:39:08.067Z,31.10
2022-07-28T16:41:47.604Z,31.09
2022-07-28T16:44:19.371Z,31.10
2022-07-28T16:46:50.423Z,31.10
2022-07-28T16:49:21.205Z,31.12
2022-07-28T16:51:52.314Z,31.11
2022-07-28T16:54:23.119Z,31.06
2022-07-28T16:56:57.297Z,31.10
2022-07-28T16:59:37.026Z,31.08
2022-07-28T17:02:10.995Z,31.06
2022-07-28T17:04:42.105Z,31.08
2022-07-28T17:07:13.068Z,31.09
2022-07-28T17:09:43.840Z,31.06
2022-07-28T17:12:14.777Z,31.08
2022-07-28T17:14:45.506Z,31.05
2022-07-28T17:17:16.022Z,31.07
2022-07-28T17:19:48.642Z,31.05
2022-07-28T17:22:19.398Z,31.06
2022-07-28T17:24:50.998Z,31.03
2022-07-28T17:27:39.071Z,31.06
2022-07-28T17:30:11.753Z,31.05
2022-07-28T17:32:42.140Z,31.06
2022-07-28T17:35:34.458Z,31.02
2022-07-28T17:38:03.941Z,31.05
2022-07-28T17:40:34.629Z,31.06
2022-07-28T17:43:05.302Z,31.05
2022-07-28T17:45:35.973Z,31.02
2022-07-28T17:48:07.570Z,31.02
2022-07-28T17:50:38.274Z,31.03
2022-07-28T17:53:08.999Z,31.01
2022-07-28T17:56:00.758Z,31.02
2022-07-28T17:58:33.610Z,30.99
2022-07-28T18:01:10.892Z,30.98
2022-07-28T18:03:59.522Z,30.99
2022-07-28T18:06:36.919Z,30.96
2022-07-28T18:09:10.670Z,30.95
2022-07-28T18:11:56.885Z,30.96
2022-07-28T18:14:30.381Z,30.94
2022-07-28T18:17:02.144Z,30.94
2022-07-28T18:19:32.966Z,30.94
2022-07-28T18:22:03.615Z,30.91
2022-07-28T18:24:34.615Z,30.91
2022-07-28T18:27:05.334Z,30.93
2022-07-28T18:29:37.770Z,30.92
2022-07-28T18:32:10.985Z,30.88
2022-07-28T18:34:43.035Z,30.91
2022-07-28T18:37:15.473Z,30.91
2022-07-28T18:39:46.108Z,30.93
2022-07-28T18:42:16.782Z,30.91
2022-07-28T18:44:49.078Z,30.92
2022-07-28T18:47:19.762Z,30.89
2022-07-28T18:49:50.376Z,30.91
2022-07-28T18:52:21.399Z,30.89
2022-07-28T18:54:53.308Z,30.90
2022-07-28T18:57:24.399Z,30.89
2022-07-28T18:59:56.320Z,30.90
2022-07-28T19:02:27.133Z,30.88
2022-07-28T19:04:59.078Z,30.87
2022-07-28T19:07:30.245Z,30.86
2022-07-28T19:10:01.408Z,30.88
2022-07-28T19:12:34.030Z,30.87
2022-07-28T19:15:04.873Z,30.88
2022-07-28T19:17:36.674Z,30.87
2022-07-28T19:20:10.547Z,30.87
2022-07-28T19:22:42.610Z,30.87
2022-07-28T19:25:13.689Z,30.85
2022-07-28T19:27:45.094Z,30.87
2022-07-28T19:30:15.951Z,30.86
2022-07-28T19:32:46.736Z,30.84
2022-07-28T19:35:17.657Z,30.82
2022-07-28T19:37:48.311Z,30.82
2022-07-28T19:40:19.139Z,30.83
2022-07-28T19:42:51.043Z,30.80
2022-07-28T19:45:21.599Z,30.83
2022-07-28T19:47:52.268Z,30.83
2022-07-28T19:50:23.304Z,30.82
2022-07-28T19:52:53.991Z,30.82
2022-07-28T19:55:29.600Z,30.83
2022-07-28T19:58:02.321Z,30.83
2022-07-28T20:00:33.301Z,30.83
2022-07-28T20:03:04.446Z,30.84
2022-07-28T20:05:55.155Z,30.83
2022-07-28T20:08:25.709Z,30.84
2022-07-28T20:10:58.288Z,30.82
2022-07-28T20:13:28.986Z,30.83
2022-07-28T20:15:59.775Z,30.82
2022-07-28T20:18:30.414Z,30.83
2022-07-28T20:21:01.203Z,30.81
2022-07-28T20:23:32.151Z,30.76
2022-07-28T20:26:02.924Z,30.78
2022-07-28T20:28:33.621Z,30.77
2022-07-28T20:31:04.581Z,30.77
2022-07-28T20:33:35.229Z,30.74
2022-07-28T20:36:06.472Z,30.76
2022-07-28T20:38:37.099Z,30.78
2022-07-28T20:41:09.797Z,30.79
2022-07-28T20:43:40.629Z,30.75
2022-07-28T20:46:11.550Z,30.76
2022-07-28T20:48:42.455Z,30.76
2022-07-28T20:51:13.392Z,30.74
2022-07-28T20:53:44.036Z,30.74
2022-07-28T20:56:14.914Z,30.73
2022-07-28T20:58:45.756Z,30.72
2022-07-28T21:01:16.783Z,30.74
2022-07-28T21:03:52.921Z,30.73
2022-07-28T21:06:23.575Z,30.72
2022-07-28T21:08:55.149Z,30.73
2022-07-28T21:11:29.966Z,30.72
2022-07-28T21:14:06.378Z,30.70
2022-07-28T21:16:37.585Z,30.68
2022-07-28T21:19:08.448Z,30.70
2022-07-28T21:21:39.454Z,30.72
2022-07-28T21:24:10.452Z,30.69
2022-07-28T21:26:43.519Z,30.68
2022-07-28T21:32:02.283Z,30.66
2022-07-28T21:34:37.662Z,30.66
2022-07-28T21:37:09.645Z,30.65
2022-07-28T21:39:41.232Z,30.68
2022-07-28T21:42:11.957Z,30.65
2022-07-28T21:44:42.889Z,30.66
2022-07-28T21:47:13.830Z,30.63
2022-07-28T21:49:44.603Z,30.64
2022-07-28T21:52:15.223Z,30.64
2022-07-28T21:54:46.044Z,30.66
2022-07-28T21:57:24.554Z,30.63
2022-07-28T21:59:56.977Z,30.61
2022-07-28T22:02:27.616Z,30.61
2022-07-28T22:04:59.905Z,30.58
2022-07-28T22:07:30.773Z,30.58
2022-07-28T22:10:01.610Z,30.57
2022-07-28T22:12:33.302Z,30.57
2022-07-28T22:15:04.150Z,30.57
2022-07-28T22:17:34.821Z,30.56
2022-07-28T22:20:06.147Z,30.55
2022-07-28T22:22:36.675Z,30.53
2022-07-28T22:25:07.832Z,30.53
2022-07-28T22:27:38.495Z,30.58
2022-07-28T22:30:10.215Z,30.56
2022-07-28T22:32:40.967Z,30.57
2022-07-28T22:35:11.909Z,30.55
2022-07-28T22:37:42.526Z,30.56
2022-07-28T22:40:14.611Z,30.55
2022-07-28T22:42:46.897Z,30.52
2022-07-28T22:45:49.509Z,30.52
2022-07-28T22:48:08.843Z,30.48
2022-07-28T22:50:44.049Z,30.49
2022-07-28T22:53:14.741Z,30.49
2022-07-28T22:58:30.646Z,30.46
2022-07-28T23:01:01.158Z,30.47
2022-07-28T23:03:33.762Z,30.44
2022-07-28T23:06:04.420Z,30.44
2022-07-28T23:08:34.797Z,30.46
2022-07-28T23:11:05.147Z,30.43
2022-07-28T23:13:35.402Z,30.42
2022-07-28T23:16:05.775Z,30.43
2022-07-28T23:18:36.292Z,30.41
2022-07-28T23:21:07.085Z,30.40
2022-07-28T23:23:37.681Z,29.90
2022-07-28T23:26:08.256Z,29.80
2022-07-28T23:28:41.639Z,29.78
2022-07-28T23:31:11.981Z,29.75
2022-07-28T23:33:54.309Z,29.84
2022-07-28T23:36:28.208Z,29.73
2022-07-28T23:38:59.953Z,29.88
2022-07-28T23:41:31.470Z,29.95
2022-07-28T23:44:01.857Z,29.85
2022-07-28T23:46:32.231Z,29.87
2022-07-28T23:49:02.669Z,29.97
2022-07-28T23:51:47.924Z,29.89
2022-07-28T23:54:19.151Z,29.97
2022-07-28T23:56:52.948Z,29.85
2022-07-28T23:59:24.104Z,29.90
